Time;durP1;ratioP1;P1;durP2;ratioP2;P2;SDS_P1;SDS_P2;PMS_P1;PMS_P2;Temp;Humidity;BMP_temperature;BMP_pressure;BME280_temperature;BME280_humidity;BME280_pressure;Samples;Min_cycle;Max_cycle;Signal;HPM_P1;HPM_P2
2021/06/22 00:00:11;;;;;;;20.67;12.10;;;;;;;13.85;52.11;101749.25;4927641;29;20052;-40
2021/06/22 00:02:38;;;;;;;21.75;11.35;;;;;;;13.81;52.35;101745.56;4915158;29;20040;-40
2021/06/22 00:05:06;;;;;;;17.40;10.80;;;;;;;13.75;52.40;101750.53;4913938;29;20095;-40
2021/06/22 00:07:32;;;;;;;18.02;10.88;;;;;;;13.71;52.82;101752.38;4921077;29;20612;-40
2021/06/22 00:09:59;;;;;;;18.10;12.27;;;;;;;13.72;52.54;101751.19;4921089;29;20044;-40
2021/06/22 00:12:26;;;;;;;19.48;11.40;;;;;;;13.68;52.74;101755.84;4922797;29;20509;-39
2021/06/22 00:14:54;;;;;;;16.73;11.90;;;;;;;13.65;52.90;101748.16;4916099;29;20103;-40
2021/06/22 00:17:21;;;;;;;20.70;10.68;;;;;;;13.60;53.01;101742.81;4915265;29;20051;-40
2021/06/22 00:19:48;;;;;;;16.15;10.63;;;;;;;13.58;53.22;101753.44;4919240;29;20048;-40
2021/06/22 00:22:15;;;;;;;15.68;9.70;;;;;;;13.62;53.21;101748.84;4914520;29;20447;-46
2021/06/22 00:24:42;;;;;;;14.50;9.95;;;;;;;13.69;53.29;101754.66;4923641;29;20123;-40
2021/06/22 00:27:12;;;;;;;17.83;10.95;;;;;;;13.74;52.93;101762.78;4894803;29;20131;-40
2021/06/22 00:29:43;;;;;;;14.30;10.18;;;;;;;13.76;53.12;101762.47;4926791;29;20122;-41
2021/06/22 00:32:10;;;;;;;16.40;10.35;;;;;;;13.73;53.11;101754.81;4920344;29;20101;-40
2021/06/22 00:34:37;;;;;;;19.88;11.52;;;;;;;13.71;53.02;101754.34;4914377;29;20095;-40
2021/06/22 00:37:04;;;;;;;15.48;11.38;;;;;;;13.68;52.96;101755.84;4920032;29;20048;-41
2021/06/22 00:39:31;;;;;;;17.55;10.75;;;;;;;13.65;53.23;101750.94;4926482;29;20116;-40
2021/06/22 00:41:59;;;;;;;15.25;10.25;;;;;;;13.67;53.25;101748.63;4918779;29;20048;-40
2021/06/22 00:44:25;;;;;;;17.02;11.38;;;;;;;13.62;53.44;101751.63;4917446;29;20090;-40
2021/06/22 00:46:52;;;;;;;16.23;9.75;;;;;;;13.61;53.22;101747.22;4917503;29;20512;-39
2021/06/22 00:49:19;;;;;;;19.60;9.65;;;;;;;13.63;53.37;101750.47;4915269;29;20498;-40
2021/06/22 00:51:46;;;;;;;16.95;9.98;;;;;;;13.63;53.55;101749.66;4915029;29;20040;-41
2021/06/22 00:54:13;;;;;;;14.50;9.40;;;;;;;13.61;53.56;101749.19;4914666;29;20455;-40
2021/06/22 00:56:41;;;;;;;17.98;10.18;;;;;;;13.58;53.74;101741.53;4915097;29;20474;-40
2021/06/22 00:59:09;;;;;;;16.20;9.90;;;;;;;13.52;53.91;101742.88;4928146;29;20071;-40
2021/06/22 01:01:36;;;;;;;16.27;9.75;;;;;;;13.47;54.20;101752.25;4926307;29;20502;-40
2021/06/22 01:04:06;;;;;;;19.27;10.15;;;;;;;13.42;54.15;101756.03;4909023;29;20048;-40
2021/06/22 01:06:33;;;;;;;17.30;10.35;;;;;;;13.48;54.29;101770.56;4918711;29;20432;-40
2021/06/22 01:09:00;;;;;;;15.55;10.68;;;;;;;13.54;54.23;101769.22;4920576;29;20072;-40
2021/06/22 01:11:26;;;;;;;14.52;9.32;;;;;;;13.56;53.95;101763.28;4931191;29;20542;-40
2021/06/22 01:13:53;;;;;;;14.45;9.95;;;;;;;13.64;53.96;101762.41;4918379;29;20557;-40
2021/06/22 01:16:22;;;;;;;16.27;9.43;;;;;;;13.68;53.92;101769.75;4918248;29;20079;-40
2021/06/22 01:18:57;;;;;;;16.85;9.30;;;;;;;13.70;54.19;101773.00;4924310;29;20044;-40
2021/06/22 01:21:25;;;;;;;15.27;9.10;;;;;;;13.76;54.00;101765.25;4918186;29;20064;-40
2021/06/22 01:23:52;;;;;;;18.83;8.65;;;;;;;13.80;53.62;101764.22;4918285;29;20090;-40
2021/06/22 01:26:19;;;;;;;10.43;7.80;;;;;;;13.80;53.82;101769.78;4926149;29;20040;-40
2021/06/22 01:28:46;;;;;;;15.43;9.27;;;;;;;13.77;53.93;101767.69;4919749;29;20524;-40
2021/06/22 01:31:14;;;;;;;13.82;8.40;;;;;;;13.71;54.05;101771.84;4895953;29;20054;-40
2021/06/22 01:33:48;;;;;;;12.10;7.82;;;;;;;13.68;54.13;101780.06;4919772;29;20051;-40
2021/06/22 01:36:17;;;;;;;11.57;8.40;;;;;;;13.71;54.04;101779.38;4920859;29;20079;-40
2021/06/22 01:38:44;;;;;;;12.68;8.02;;;;;;;13.76;54.02;101770.81;4920334;29;20054;-40
2021/06/22 01:41:11;;;;;;;12.40;8.55;;;;;;;13.77;54.05;101776.03;4926781;29;20047;-40
2021/06/22 01:43:38;;;;;;;12.63;8.90;;;;;;;13.72;53.79;101770.69;4901820;29;20683;-40
2021/06/22 01:46:05;;;;;;;12.82;8.70;;;;;;;13.64;54.38;101774.34;4913520;29;20401;-41
2021/06/22 01:48:32;;;;;;;12.45;8.55;;;;;;;13.62;54.38;101771.09;4905903;29;20079;-40
2021/06/22 01:50:59;;;;;;;14.93;8.90;;;;;;;13.61;54.42;101774.25;4904396;29;20127;-40
2021/06/22 01:53:26;;;;;;;17.85;9.20;;;;;;;13.52;54.87;101771.53;4905093;29;20044;-40
2021/06/22 01:55:53;;;;;;;15.00;9.27;;;;;;;13.55;54.77;101770.03;4922985;29;20056;-40
2021/06/22 01:58:21;;;;;;;13.15;8.00;;;;;;;13.61;54.54;101772.25;4924057;29;20040;-40
2021/06/22 02:00:51;;;;;;;17.27;8.48;;;;;;;13.60;54.62;101772.59;4917774;29;20051;-40
2021/06/22 02:03:20;;;;;;;15.82;9.07;;;;;;;13.62;54.82;101776.66;4917917;29;20064;-40
2021/06/22 02:05:48;;;;;;;14.82;8.93;;;;;;;13.59;54.85;101776.53;4905130;29;20476;-40
2021/06/22 02:08:17;;;;;;;18.50;9.30;;;;;;;13.58;54.51;101770.13;4918510;29;20051;-40
2021/06/22 02:10:45;;;;;;;15.57;9.05;;;;;;;13.54;54.61;101769.22;4923568;29;20181;-40
2021/06/22 02:13:12;;;;;;;13.75;9.07;;;;;;;13.48;54.79;101770.56;4917422;29;20371;-46
2021/06/22 02:15:40;;;;;;;14.00;7.75;;;;;;;13.37;55.36;101772.94;4918880;29;20095;-40
2021/06/22 02:18:08;;;;;;;13.38;7.95;;;;;;;13.36;55.01;101781.63;4916873;29;20052;-41
2021/06/22 02:20:37;;;;;;;13.70;8.35;;;;;;;13.51;55.00;101774.63;4917012;29;20666;-41
2021/06/22 02:23:06;;;;;;;11.52;7.20;;;;;;;13.46;55.10;101778.44;4921314;29;20047;-41
2021/06/22 02:25:34;;;;;;;10.00;7.82;;;;;;;13.40;55.29;101780.59;4911456;29;20130;-40
2021/06/22 02:28:09;;;;;;;13.25;8.55;;;;;;;13.57;55.07;101785.22;4923391;29;20052;-41
2021/06/22 02:30:38;;;;;;;12.48;7.88;;;;;;;13.56;54.76;101782.78;4918610;29;20144;-40
2021/06/22 02:33:07;;;;;;;16.73;8.48;;;;;;;13.49;55.09;101788.91;4916747;29;20148;-40
2021/06/22 02:35:34;;;;;;;13.90;8.07;;;;;;;13.53;55.02;101789.03;4903548;29;20118;-40
2021/06/22 02:38:01;;;;;;;14.52;8.40;;;;;;;13.56;54.65;101783.59;4918681;29;20040;-40
2021/06/22 02:40:29;;;;;;;11.85;7.43;;;;;;;13.36;55.01;101790.78;4929408;29;20446;-40
2021/06/22 02:42:56;;;;;;;16.80;8.90;;;;;;;13.34;55.13;101786.72;4920372;29;20051;-40
2021/06/22 02:45:24;;;;;;;15.82;7.72;;;;;;;13.26;54.92;101784.81;4910806;29;20048;-40
2021/06/22 02:47:52;;;;;;;14.45;8.70;;;;;;;13.05;55.63;101786.72;4899441;29;20076;-40
2021/06/22 02:50:20;;;;;;;22.20;10.27;;;;;;;12.95;55.93;101779.56;4929639;29;20521;-40
2021/06/22 02:52:47;;;;;;;16.95;9.73;;;;;;;12.77;56.51;101776.09;4918371;29;20048;-40
2021/06/22 02:55:18;;;;;;;15.02;9.18;;;;;;;12.77;56.37;101775.28;4912295;29;20146;-47
2021/06/22 02:57:50;;;;;;;14.07;9.20;;;;;;;12.76;56.23;101773.66;4915268;29;20053;-40
2021/06/22 03:00:19;;;;;;;20.80;10.48;;;;;;;12.57;56.73;101768.53;4916448;29;20054;-40
2021/06/22 03:02:46;;;;;;;16.20;9.60;;;;;;;12.49;56.86;101780.47;4910111;29;20108;-40
2021/06/22 03:05:13;;;;;;;13.55;8.98;;;;;;;12.51;56.90;101780.97;4910349;29;20131;-40
2021/06/22 03:07:40;;;;;;;16.65;9.85;;;;;;;12.49;56.99;101776.88;4916864;29;20553;-40
2021/06/22 03:10:09;;;;;;;16.08;8.32;;;;;;;12.47;56.96;101782.75;4924663;29;20048;-40
2021/06/22 03:12:36;;;;;;;16.73;8.85;;;;;;;12.52;56.83;101784.56;4916544;29;20470;-41
2021/06/22 03:15:05;;;;;;;13.07;9.25;;;;;;;12.58;56.11;101774.88;4934713;29;20052;-40
2021/06/22 03:17:32;;;;;;;15.30;9.05;;;;;;;12.48;56.14;101780.78;4926970;29;20051;-40
2021/06/22 03:19:59;;;;;;;15.35;9.65;;;;;;;12.35;56.35;101793.75;4916819;29;20060;-40
2021/06/22 03:22:26;;;;;;;14.20;9.13;;;;;;;12.26;56.31;101790.19;4915112;29;20114;-40
2021/06/22 03:24:53;;;;;;;14.85;9.65;;;;;;;12.20;56.42;101791.53;4909358;29;20048;-40
2021/06/22 03:27:19;;;;;;;14.98;8.95;;;;;;;12.12;56.32;101789.59;4911184;29;20123;-40
2021/06/22 03:29:46;;;;;;;17.60;10.10;;;;;;;12.07;56.55;101786.97;4911419;29;20044;-41
2021/06/22 03:32:13;;;;;;;13.23;9.23;;;;;;;12.03;56.56;101788.78;4921189;29;20035;-40
2021/06/22 03:34:41;;;;;;;13.55;9.07;;;;;;;11.84;57.21;101791.91;4935616;29;20067;-40
2021/06/22 03:37:08;;;;;;;17.85;10.48;;;;;;;11.89;57.10;101796.47;4925802;29;20054;-40
2021/06/22 03:39:35;;;;;;;25.85;11.90;;;;;;;11.86;57.22;101795.16;4922000;29;20127;-40
2021/06/22 03:42:07;;;;;;;14.20;9.43;;;;;;;11.98;56.88;101794.50;4916066;29;20055;-40
2021/06/22 03:44:36;;;;;;;15.35;8.70;;;;;;;12.04;56.56;101790.41;4916553;29;20050;-40
2021/06/22 03:47:03;;;;;;;16.45;9.95;;;;;;;11.99;56.62;101790.59;4919034;29;20048;-40
2021/06/22 03:49:31;;;;;;;18.00;9.07;;;;;;;11.92;56.92;101784.69;4916337;29;20044;-40
2021/06/22 03:51:58;;;;;;;19.00;11.02;;;;;;;11.87;56.83;101782.09;4923617;29;20075;-40
2021/06/22 03:54:25;;;;;;;16.13;10.88;;;;;;;11.80;57.28;101777.06;4915443;29;20067;-40
2021/06/22 03:56:52;;;;;;;19.38;10.82;;;;;;;11.81;57.16;101784.22;4915427;29;20375;-40
2021/06/22 03:59:19;;;;;;;16.45;9.55;;;;;;;11.82;57.09;101788.66;4915880;29;20049;-40
2021/06/22 04:01:46;;;;;;;13.70;9.30;;;;;;;11.79;57.20;101780.16;4916770;29;20078;-40
2021/06/22 04:04:12;;;;;;;16.08;9.43;;;;;;;11.74;57.19;101783.09;4915788;29;20484;-40
2021/06/22 04:06:39;;;;;;;14.30;8.68;;;;;;;11.70;57.24;101788.50;4923311;29;20036;-41
2021/06/22 04:09:06;;;;;;;15.55;10.10;;;;;;;11.55;57.76;101789.78;4915289;29;20040;-40
2021/06/22 04:11:33;;;;;;;15.68;9.40;;;;;;;11.58;57.59;101797.44;4920410;29;20131;-40
2021/06/22 04:14:00;;;;;;;13.25;8.32;;;;;;;11.59;57.72;101793.53;4915245;29;20103;-40
2021/06/22 04:16:26;;;;;;;19.17;9.77;;;;;;;11.58;57.67;101791.91;4923368;29;20044;-40
2021/06/22 04:18:53;;;;;;;14.73;9.40;;;;;;;11.67;57.56;101799.41;4918693;29;20072;-40
2021/06/22 04:21:20;;;;;;;13.70;9.70;;;;;;;11.51;57.69;101802.66;4905737;29;20084;-40
2021/06/22 04:23:47;;;;;;;18.80;9.38;;;;;;;11.49;57.89;101785.53;4917780;29;20468;-40
2021/06/22 04:26:16;;;;;;;15.82;8.60;;;;;;;11.48;58.04;101795.00;4915071;29;20047;-40
2021/06/22 04:28:43;;;;;;;18.70;9.90;;;;;;;11.50;57.99;101801.03;4905863;29;20052;-40
2021/06/22 04:31:10;;;;;;;15.68;9.40;;;;;;;11.51;57.72;101799.91;4914599;29;20052;-40
2021/06/22 04:33:37;;;;;;;17.98;10.27;;;;;;;11.55;57.86;101803.63;4918804;29;20135;-40
2021/06/22 04:36:04;;;;;;;16.90;10.10;;;;;;;11.54;57.75;101802.00;4915125;29;20130;-40
2021/06/22 04:38:31;;;;;;;14.98;10.15;;;;;;;11.46;57.96;101802.81;4921622;29;20080;-41
2021/06/22 04:40:58;;;;;;;17.83;8.88;;;;;;;11.44;58.30;101807.88;4927123;29;20044;-40
2021/06/22 04:43:25;;;;;;;13.90;9.52;;;;;;;11.47;58.49;101801.69;4915880;29;20079;-40
2021/06/22 04:45:52;;;;;;;20.20;9.77;;;;;;;11.53;58.19;101797.59;4915023;29;20079;-40
2021/06/22 04:48:18;;;;;;;15.43;9.90;;;;;;;11.41;58.55;101791.88;4915285;29;20052;-40
2021/06/22 04:50:45;;;;;;;19.67;9.75;;;;;;;11.34;58.74;101799.88;4919795;29;20098;-40
2021/06/22 04:53:13;;;;;;;15.75;9.80;;;;;;;11.41;58.64;101802.97;4916630;29;20075;-40
2021/06/22 04:55:40;;;;;;;13.57;8.90;;;;;;;11.41;58.60;101802.97;4919414;29;20054;-40
2021/06/22 04:58:07;;;;;;;14.05;8.98;;;;;;;11.42;58.33;101810.16;4922941;29;20056;-40
2021/06/22 05:00:34;;;;;;;15.43;9.50;;;;;;;11.51;58.52;101802.66;4916419;29;20161;-41
2021/06/22 05:03:01;;;;;;;14.45;10.13;;;;;;;11.54;58.19;101804.78;4913675;29;20455;-39
2021/06/22 05:05:28;;;;;;;14.52;9.93;;;;;;;11.55;58.25;101811.13;4917733;29;20044;-40
2021/06/22 05:07:55;;;;;;;17.27;10.05;;;;;;;11.49;58.27;101810.47;4915529;29;20126;-40
2021/06/22 05:10:22;;;;;;;17.42;8.52;;;;;;;11.46;58.62;101811.13;4919792;29;20036;-40
2021/06/22 05:12:49;;;;;;;15.02;9.50;;;;;;;11.49;58.58;101809.69;4918833;29;20115;-40
2021/06/22 05:15:18;;;;;;;16.77;9.68;;;;;;;11.55;58.71;101817.50;4914678;29;20498;-40
2021/06/22 05:17:45;;;;;;;15.23;9.75;;;;;;;11.58;58.47;101816.84;4913524;29;20059;-40
2021/06/22 05:20:12;;;;;;;12.15;8.32;;;;;;;11.65;58.59;101815.56;4914360;29;20068;-40
2021/06/22 05:22:42;;;;;;;14.13;9.50;;;;;;;11.80;58.33;101820.63;4914803;29;20052;-40
2021/06/22 05:25:10;;;;;;;18.83;9.73;;;;;;;11.82;57.91;101823.91;4923163;29;20509;-40
2021/06/22 05:27:36;;;;;;;13.85;9.70;;;;;;;11.76;57.98;101827.97;4903056;29;20127;-40
2021/06/22 05:30:05;;;;;;;13.60;8.70;;;;;;;11.70;58.42;101827.34;4901316;29;20115;-41
2021/06/22 05:32:32;;;;;;;24.80;11.02;;;;;;;11.60;58.84;101833.97;4914893;29;20072;-40
2021/06/22 05:34:59;;;;;;;17.95;9.35;;;;;;;11.59;59.11;101837.91;4914479;29;20052;-40
2021/06/22 05:37:26;;;;;;;17.23;10.00;;;;;;;11.68;58.84;101828.75;4914383;29;20047;-40
2021/06/22 05:39:52;;;;;;;15.15;9.82;;;;;;;11.82;58.59;101837.78;4914292;29;20111;-40
2021/06/22 05:42:19;;;;;;;13.93;9.40;;;;;;;11.79;58.71;101835.66;4914502;29;20123;-45
2021/06/22 05:44:46;;;;;;;15.68;8.80;;;;;;;11.87;58.60;101838.41;4918141;29;20047;-40
2021/06/22 05:47:13;;;;;;;15.32;8.60;;;;;;;11.98;58.42;101839.72;4919603;29;20396;-40
2021/06/22 05:49:40;;;;;;;16.02;9.90;;;;;;;12.04;58.58;101840.38;4917922;29;20350;-41
2021/06/22 05:52:07;;;;;;;13.23;9.30;;;;;;;12.06;58.44;101838.91;4918303;29;20096;-40
2021/06/22 05:54:36;;;;;;;22.77;10.13;;;;;;;12.14;58.67;101837.25;4917691;29;20068;-40
2021/06/22 05:57:04;;;;;;;16.70;8.95;;;;;;;12.26;58.44;101840.16;4917943;29;20100;-40
2021/06/22 05:59:32;;;;;;;13.25;8.57;;;;;;;12.32;58.49;101838.03;4907556;29;20482;-40
2021/06/22 06:01:58;;;;;;;14.40;9.20;;;;;;;12.36;58.47;101839.00;4917037;29;20048;-40
2021/06/22 06:04:28;;;;;;;14.70;9.43;;;;;;;12.36;58.56;101845.38;4927827;29;20048;-40
2021/06/22 06:06:56;;;;;;;14.90;9.70;;;;;;;12.39;58.69;101847.47;4901058;29;20056;-40
2021/06/22 06:09:24;;;;;;;18.10;9.55;;;;;;;12.43;58.68;101851.25;4933176;29;20048;-40
2021/06/22 06:11:55;;;;;;;14.82;9.05;;;;;;;12.40;58.90;101845.53;4898678;29;20064;-40
2021/06/22 06:14:22;;;;;;;18.70;9.85;;;;;;;12.53;58.52;101845.31;4898814;29;20092;-41
2021/06/22 06:16:49;;;;;;;17.83;10.10;;;;;;;12.63;58.18;101844.94;4881873;29;20542;-40
2021/06/22 06:19:16;;;;;;;19.13;9.85;;;;;;;12.62;58.04;101857.22;4898636;29;20057;-41
2021/06/22 06:21:44;;;;;;;15.07;9.27;;;;;;;12.63;58.08;101856.06;4902962;29;20127;-40
2021/06/22 06:24:11;;;;;;;14.32;8.43;;;;;;;12.66;58.26;101852.63;4905705;29;20056;-41
2021/06/22 06:26:47;;;;;;;12.48;8.65;;;;;;;12.73;58.19;101855.69;4897560;29;20132;-40
2021/06/22 06:29:41;;;;;;;14.27;8.95;;;;;;;12.71;58.47;101855.22;4911144;29;20048;-40
2021/06/22 06:32:01;;;;;;;15.63;8.57;;;;;;;12.86;58.17;101848.31;4916313;29;20052;-40
2021/06/22 06:34:28;;;;;;;13.93;8.48;;;;;;;12.93;58.22;101851.38;4905935;29;20044;-40
2021/06/22 06:36:55;;;;;;;14.57;9.00;;;;;;;12.98;57.93;101856.75;4897869;29;20058;-40
2021/06/22 06:39:21;;;;;;;21.90;9.30;;;;;;;12.98;58.33;101859.53;4912931;29;20455;-45
2021/06/22 06:41:49;;;;;;;15.38;8.90;;;;;;;12.96;58.50;101858.22;4915957;29;20171;-40
2021/06/22 06:44:16;;;;;;;17.48;8.32;;;;;;;13.03;58.49;101864.06;4918919;29;20134;-40
2021/06/22 06:46:43;;;;;;;18.58;9.65;;;;;;;13.15;58.38;101867.81;4915511;29;20052;-41
2021/06/22 06:49:10;;;;;;;35.35;11.25;;;;;;;13.20;58.27;101869.59;4915949;29;20044;-40
2021/06/22 06:51:36;;;;;;;28.13;10.13;;;;;;;13.26;58.22;101866.25;4915663;29;20044;-40
2021/06/22 06:54:04;;;;;;;15.90;8.80;;;;;;;13.37;58.19;101863.91;4915636;29;20080;-41
2021/06/22 06:56:30;;;;;;;18.50;9.68;;;;;;;13.40;58.29;101866.84;4914949;29;20104;-40
2021/06/22 06:59:00;;;;;;;20.90;8.88;;;;;;;13.57;58.28;101874.25;4915558;29;20048;-40
2021/06/22 07:01:26;;;;;;;19.42;9.15;;;;;;;13.68;57.88;101869.94;4915784;29;20094;-42
2021/06/22 07:03:55;;;;;;;23.55;9.45;;;;;;;13.79;57.90;101865.56;4914978;29;20135;-39
2021/06/22 07:06:22;;;;;;;24.65;9.55;;;;;;;13.92;57.62;101875.63;4916026;29;20387;-40
2021/06/22 07:08:49;;;;;;;16.75;9.13;;;;;;;13.86;58.20;101877.00;4914582;29;20172;-40
2021/06/22 07:11:19;;;;;;;16.73;9.65;;;;;;;14.01;58.41;101879.16;4915880;29;20451;-40
2021/06/22 07:13:49;;;;;;;21.45;9.30;;;;;;;14.17;58.52;101872.94;4919714;29;20044;-40
2021/06/22 07:16:16;;;;;;;18.00;9.55;;;;;;;14.24;58.56;101876.00;4915180;29;20052;-41
2021/06/22 07:18:43;;;;;;;25.42;8.80;;;;;;;14.29;58.75;101873.00;4919773;29;20040;-41
2021/06/22 07:21:10;;;;;;;20.05;10.50;;;;;;;14.47;58.88;101880.06;4914053;29;20063;-40
2021/06/22 07:23:37;;;;;;;15.48;9.05;;;;;;;14.59;59.15;101880.91;4914559;29;20159;-40
2021/06/22 07:26:04;;;;;;;19.88;8.77;;;;;;;14.76;58.96;101882.69;4916940;29;20510;-41
2021/06/22 07:28:31;;;;;;;18.80;9.40;;;;;;;14.86;59.22;101876.66;4919006;29;20048;-40
2021/06/22 07:30:58;;;;;;;29.15;10.60;;;;;;;14.96;59.34;101873.41;4911161;29;20072;-41
2021/06/22 07:33:25;;;;;;;18.50;9.45;;;;;;;15.11;59.85;101881.09;4904240;29;20076;-41
2021/06/22 07:35:52;;;;;;;17.20;8.88;;;;;;;15.33;59.89;101885.38;4913347;29;20040;-40
2021/06/22 07:38:19;;;;;;;18.63;9.90;;;;;;;15.50;59.48;101875.97;4913866;29;20052;-41
2021/06/22 07:40:46;;;;;;;24.08;10.05;;;;;;;15.82;59.60;101883.38;4915540;29;20139;-41
2021/06/22 07:43:14;;;;;;;28.25;10.82;;;;;;;16.16;59.00;101879.97;4913692;29;20863;-40
2021/06/22 07:45:41;;;;;;;15.85;8.43;;;;;;;16.58;58.44;101890.75;4918090;29;20055;-41
2021/06/22 07:48:10;;;;;;;18.55;9.15;;;;;;;16.94;56.76;101888.53;4923748;29;20375;-41
2021/06/22 07:50:37;;;;;;;12.63;7.57;;;;;;;17.53;55.65;101884.81;4922135;29;20127;-41
2021/06/22 07:53:04;;;;;;;14.73;8.68;;;;;;;18.03;54.50;101883.94;4915292;29;20107;-40
2021/06/22 07:55:33;;;;;;;14.00;7.38;;;;;;;18.72;53.00;101878.13;4914307;29;20044;-40
2021/06/22 07:58:00;;;;;;;11.95;7.95;;;;;;;19.38;51.41;101880.47;4922218;29;20082;-41
2021/06/22 08:03:01;;;;;;;14.20;8.35;;;;;;;20.38;48.74;101882.66;4906834;29;20052;-41
2021/06/22 08:05:28;;;;;;;13.45;7.53;;;;;;;20.72;47.29;101883.41;4913660;29;20071;-44
2021/06/22 08:07:54;;;;;;;15.48;7.18;;;;;;;21.29;45.62;101879.94;4901181;29;20059;-42
2021/06/22 08:10:21;;;;;;;14.70;7.70;;;;;;;21.69;44.90;101887.44;4913310;29;20063;-41
2021/06/22 08:12:48;;;;;;;12.30;7.97;;;;;;;21.99;43.82;101885.25;4912391;29;20087;-41
2021/06/22 08:15:16;;;;;;;13.57;8.20;;;;;;;22.33;43.19;101889.41;4912286;29;20063;-41
2021/06/22 08:17:43;;;;;;;12.60;7.50;;;;;;;22.60;42.74;101886.25;4913033;29;20379;-41
2021/06/22 08:20:11;;;;;;;16.38;7.85;;;;;;;22.64;41.66;101882.25;4920505;29;20048;-41
2021/06/22 08:22:38;;;;;;;11.85;7.00;;;;;;;22.58;41.33;101888.69;4905803;29;20059;-43
2021/06/22 08:25:08;;;;;;;9.63;6.50;;;;;;;22.82;40.60;101880.25;4911801;29;20052;-43
2021/06/22 08:27:35;;;;;;;11.63;6.78;;;;;;;22.98;40.35;101885.56;4911027;29;20749;-41
2021/06/22 08:30:05;;;;;;;11.52;7.45;;;;;;;23.33;39.89;101874.22;4905342;29;20556;-42
2021/06/22 08:32:31;;;;;;;7.78;5.80;;;;;;;23.64;39.28;101879.03;4912764;29;20036;-42
2021/06/22 08:34:58;;;;;;;15.85;7.45;;;;;;;23.76;38.60;101885.50;4911505;29;20056;-42
2021/06/22 08:37:27;;;;;;;9.35;5.50;;;;;;;23.66;38.28;101877.84;4925415;29;20152;-43
2021/06/22 08:39:55;;;;;;;12.60;6.57;;;;;;;23.68;37.84;101878.25;4912928;29;20139;-41
2021/06/22 08:42:23;;;;;;;8.93;5.82;;;;;;;23.63;37.65;101883.09;4912888;29;20083;-43
2021/06/22 08:44:52;;;;;;;6.63;5.85;;;;;;;23.80;37.14;101884.25;4912812;29;20494;-41
2021/06/22 08:47:22;;;;;;;8.45;5.43;;;;;;;23.70;36.28;101881.47;4904075;29;20058;-41
2021/06/22 08:49:55;;;;;;;9.32;6.03;;;;;;;23.72;36.26;101884.72;4913473;29;20083;-42
2021/06/22 08:52:24;;;;;;;10.95;5.85;;;;;;;23.91;35.93;101881.41;4910523;29;20071;-41
2021/06/22 08:54:57;;;;;;;10.98;5.53;;;;;;;24.13;34.71;101877.31;4922557;29;20075;-46
2021/06/22 08:57:24;;;;;;;9.63;6.00;;;;;;;24.11;35.20;101879.75;4915318;29;20131;-41
2021/06/22 08:59:51;;;;;;;9.40;5.68;;;;;;;24.14;35.16;101878.94;4913864;29;20052;-44
2021/06/22 09:02:29;;;;;;;8.98;5.57;;;;;;;24.23;34.86;101873.63;4895908;29;20032;-41
2021/06/22 09:04:58;;;;;;;5.65;4.88;;;;;;;24.39;34.55;101873.94;4906296;29;20090;-41
2021/06/22 09:07:47;;;;;;;9.50;5.03;;;;;;;24.28;33.96;101876.03;4911538;29;20562;-41
2021/06/22 09:10:34;;;;;;;7.47;4.97;;;;;;;24.51;33.51;101876.31;4913610;29;20509;-41
2021/06/22 09:13:17;;;;;;;8.75;5.57;;;;;;;24.66;33.46;101877.84;4913103;29;20048;-42
2021/06/22 09:15:46;;;;;;;8.40;5.38;;;;;;;24.67;33.61;101870.97;4910984;29;20128;-41
2021/06/22 09:18:28;;;;;;;8.70;5.65;;;;;;;24.86;33.05;101871.69;4912980;29;20084;-42
2021/06/22 09:21:11;;;;;;;8.52;5.30;;;;;;;25.05;32.34;101871.09;4919199;29;20060;-41
2021/06/22 09:23:40;;;;;;;5.43;4.70;;;;;;;25.07;32.64;101880.00;4921501;29;20039;-42
2021/06/22 09:26:11;;;;;;;10.55;5.40;;;;;;;25.04;32.08;101880.84;4922114;29;20040;-41
2021/06/22 09:28:38;;;;;;;6.80;4.95;;;;;;;24.91;32.38;101882.56;4912885;29;20040;-41
2021/06/22 09:31:09;;;;;;;7.85;5.43;;;;;;;24.99;31.89;101879.25;4909639;29;20151;-44
2021/06/22 09:33:51;;;;;;;7.78;5.68;;;;;;;24.79;31.01;101881.81;4915952;29;20860;-41
2021/06/22 09:36:25;;;;;;;8.15;5.57;;;;;;;24.79;31.61;101884.66;4916810;29;20048;-41
2021/06/22 09:38:56;;;;;;;7.95;5.20;;;;;;;24.81;31.40;101879.38;4914890;29;20071;-41
2021/06/22 09:41:43;;;;;;;7.18;5.72;;;;;;;24.74;31.55;101879.41;4915774;29;20581;-42
2021/06/22 09:44:15;;;;;;;8.02;5.07;;;;;;;24.75;31.31;101880.22;4909730;29;20044;-46
2021/06/22 09:46:56;;;;;;;8.77;5.07;;;;;;;24.67;31.35;101881.47;4916216;29;20055;-41
2021/06/22 09:49:25;;;;;;;7.10;5.30;;;;;;;24.63;31.27;101880.69;4916847;29;20040;-41
2021/06/22 09:52:10;;;;;;;5.85;4.95;;;;;;;24.75;31.68;101892.31;4919611;29;20046;-42
2021/06/22 09:54:52;;;;;;;10.48;5.57;;;;;;;24.87;30.94;101884.59;4904542;29;20616;-41
2021/06/22 09:57:46;;;;;;;8.48;5.00;;;;;;;24.94;31.02;101884.56;4915128;29;20055;-40
2021/06/22 10:00:16;;;;;;;9.00;4.47;;;;;;;24.94;30.64;101884.56;4915891;29;20052;-42
2021/06/22 10:02:49;;;;;;;7.22;5.13;;;;;;;24.83;30.21;101884.66;4915721;29;20076;-41
2021/06/22 10:05:17;;;;;;;8.73;5.55;;;;;;;24.72;30.77;101887.53;4916244;29;20054;-41
2021/06/22 10:07:44;;;;;;;6.75;4.18;;;;;;;24.75;30.41;101892.31;4916009;29;20459;-41
2021/06/22 10:10:11;;;;;;;6.53;5.35;;;;;;;24.85;30.35;101889.88;4915084;29;20139;-41
2021/06/22 10:12:44;;;;;;;6.03;4.22;;;;;;;24.93;30.41;101882.94;4910920;29;20075;-41
2021/06/22 10:15:14;;;;;;;5.55;4.47;;;;;;;24.94;30.04;101893.84;4923623;29;20467;-40
2021/06/22 10:17:42;;;;;;;5.60;4.85;;;;;;;24.99;30.00;101890.59;4915341;29;20048;-41
2021/06/22 10:20:11;;;;;;;10.30;5.63;;;;;;;24.60;30.38;101884.34;4917104;29;20489;-41
2021/06/22 10:22:40;;;;;;;7.50;5.47;;;;;;;24.41;30.57;101885.66;4918967;29;20046;-42
2021/06/22 10:25:09;;;;;;;4.82;4.05;;;;;;;24.38;30.75;101886.50;4915679;29;20076;-41
2021/06/22 10:27:37;;;;;;;6.43;5.05;;;;;;;24.19;30.50;101879.31;4924723;29;20107;-41
2021/06/22 10:30:07;;;;;;;10.45;5.18;;;;;;;24.06;30.82;101880.16;4915019;29;20052;-41
2021/06/22 10:32:35;;;;;;;8.23;4.90;;;;;;;24.15;31.00;101880.53;4915124;29;20078;-40
2021/06/22 10:35:13;;;;;;;5.85;4.22;;;;;;;24.19;31.04;101881.34;4918139;29;20096;-40
2021/06/22 10:37:53;;;;;;;5.05;4.43;;;;;;;24.34;30.23;101877.22;4914671;29;20127;-41
2021/06/22 10:40:26;;;;;;;7.32;4.60;;;;;;;24.46;29.51;101873.94;4915347;29;20052;-50
2021/06/22 10:42:55;;;;;;;4.85;4.30;;;;;;;24.35;30.16;101873.19;4889055;29;20052;-41
2021/06/22 10:46:02;;;;;;;8.30;4.85;;;;;;;23.96;30.25;101866.84;4913272;29;20048;-43
2021/06/22 10:48:42;;;;;;;6.43;4.80;;;;;;;23.69;30.66;101874.22;4915348;29;20041;-41
2021/06/22 10:51:28;;;;;;;6.72;5.38;;;;;;;23.38;30.42;101871.03;4915615;29;20044;-40
2021/06/22 10:53:56;;;;;;;5.75;4.15;;;;;;;23.22;31.05;101873.41;4924411;29;20052;-41
2021/06/22 10:56:28;;;;;;;8.43;4.83;;;;;;;23.32;30.62;101866.97;4915018;29;20044;-42
2021/06/22 10:59:14;;;;;;;4.68;4.15;;;;;;;23.36;30.16;101866.97;4915195;29;20804;-41
2021/06/22 11:01:53;;;;;;;7.70;4.55;;;;;;;23.22;30.35;101872.63;4914393;29;20076;-46
2021/06/22 11:04:22;;;;;;;5.75;4.15;;;;;;;22.89;30.71;101863.34;4917802;29;20052;-40
2021/06/22 11:07:07;;;;;;;5.50;4.25;;;;;;;22.67;29.86;101863.72;4906075;29;20071;-44
2021/06/22 11:09:35;;;;;;;6.25;4.70;;;;;;;22.44;31.09;101862.03;4924655;29;20120;-40
2021/06/22 11:12:23;;;;;;;6.90;4.65;;;;;;;22.28;31.25;101875.69;4918712;29;20134;-41
2021/06/22 11:15:09;;;;;;;5.55;4.53;;;;;;;22.10;31.90;101869.19;4907619;29;20058;-40
2021/06/22 11:17:41;;;;;;;7.55;4.63;;;;;;;22.03;31.75;101863.50;4915232;29;20052;-42
2021/06/22 11:20:14;;;;;;;11.00;4.13;;;;;;;21.74;31.88;101861.69;4915627;29;20071;-46
2021/06/22 11:23:10;;;;;;;4.95;4.45;;;;;;;21.56;32.12;101866.44;4914802;29;20059;-43
2021/06/22 11:26:02;;;;;;;5.43;3.83;;;;;;;21.18;32.00;101870.63;4917737;29;20107;-41
2021/06/22 11:28:56;;;;;;;7.20;4.20;;;;;;;21.05;31.97;101884.13;4919560;29;20414;-42